Corpus Christi International Airport
KCRP : now visible

Airfield :











YOU CAN JOIN US ON...

 
LOGIN :

Register | Disclaimer

   EN    FR    IT 

 









Legend :    VFR   Marginal VFR   IFR   Intensive IFR   Very Intensive IFR
Visi :
Ceiling :
>= 8 km
>= 3000ft
5 to 8 km
1000 to 3000 ft
1500m to 5 km
500 to 1000 ft
800 to 1500m
200 to 500 ft
< 800m
< 200 ft
Symbols :   Thunderstorms  Fog  Heavy snow  Heavy precipitations  Wind > 20 kt







- Airport Elevation : 44 ft
- IATA code : CRP


KCRP - Corpus Christi International

CURRENT METAR :
  • 191351Z 01013KT 10SM FEW008 OVC012 11/07 A2995 RMK AO2 SLP140 T01060072

EXPIRED METARs :
  • 191251Z 03013KT 10SM FEW008 OVC012 12/09 A2995 RMK AO2 SLP140 T01170089 $
  • 191151Z 04014KT 10SM FEW009 OVC013 12/09 A2995 RMK AO2 SLP142 60000 T01220089 10150 20122 56024

TAF KCRP
Valid from the 19 at 12:00 until the 20 at 12:00 UTC


191120Z 1912/2012 04015KT P6SM -DZ SCT008 OVC012
TEMPO 1912/1916 4SM -DZ BR OVC008
FM191900 01010KT P6SM BKN020
FM200700 36011KT P6SM OVC009
PROB30 2007/2012 5SM -RA BR
KZHU FIR / North America



MET'MAP, your aeronautical weather chart ! - Copyright ORBIFLY December 2007 - Disclaimer

ORBIFLY MET'MAP TEAM :

Programming & Development : Alexandra Zaïnal
Concept & Development : Baudouin d'Aumeries
Co-Development & Prog : Marc-Olivier Méhu
Technical & hardware support : Manuel Goepfert

Contact : metmap@orbifly.com




SOURCES & CREDITS :

   NOAA       Earth
Advisory